sensor_id;sensor_type;location;lat;lon;timestamp;temperature;humidity
12460;DHT22;6295;49.452;8.466;2023-04-24T04:14:47;10.80;99.90
12460;DHT22;6295;49.452;8.466;2023-04-24T04:18:49;10.80;99.90
12460;DHT22;6295;49.452;8.466;2023-04-24T04:22:51;10.70;99.90
12460;DHT22;6295;49.452;8.466;2023-04-24T04:26:53;10.70;99.90
12460;DHT22;6295;49.452;8.466;2023-04-24T04:35:02;10.60;99.90
12460;DHT22;6295;49.452;8.466;2023-04-24T04:39:04;10.60;99.90
12460;DHT22;6295;49.452;8.466;2023-04-24T04:43:06;10.60;99.90
12460;DHT22;6295;49.452;8.466;2023-04-24T04:47:10;10.50;99.90
12460;DHT22;6295;49.452;8.466;2023-04-24T04:55:16;10.50;99.90
12460;DHT22;6295;49.452;8.466;2023-04-24T04:59:18;10.50;99.90
12460;DHT22;6295;49.452;8.466;2023-04-24T05:03:22;10.50;99.90
12460;DHT22;6295;49.452;8.466;2023-04-24T05:07:24;10.50;99.90
12460;DHT22;6295;49.452;8.466;2023-04-24T05:19:32;10.50;99.90
12460;DHT22;6295;49.452;8.466;2023-04-24T05:23:36;10.60;99.90
12460;DHT22;6295;49.452;8.466;2023-04-24T05:31:43;10.70;99.90
12460;DHT22;6295;49.452;8.466;2023-04-24T05:35:47;10.70;99.90
12460;DHT22;6295;49.452;8.466;2023-04-24T05:39:49;10.70;99.90
12460;DHT22;6295;49.452;8.466;2023-04-24T05:43:51;10.80;99.90
12460;DHT22;6295;49.452;8.466;2023-04-24T05:51:57;10.90;99.90
12460;DHT22;6295;49.452;8.466;2023-04-24T05:56:02;10.90;99.90
12460;DHT22;6295;49.452;8.466;2023-04-24T06:00:07;10.90;99.90
12460;DHT22;6295;49.452;8.466;2023-04-24T06:04:09;11.00;99.90
12460;DHT22;6295;49.452;8.466;2023-04-24T06:08:12;11.00;99.90
12460;DHT22;6295;49.452;8.466;2023-04-24T06:12:14;11.00;99.90
12460;DHT22;6295;49.452;8.466;2023-04-24T06:16:16;11.10;99.90
12460;DHT22;6295;49.452;8.466;2023-04-24T06:24:27;11.20;99.90
12460;DHT22;6295;49.452;8.466;2023-04-24T06:28:29;11.20;99.90
12460;DHT22;6295;49.452;8.466;2023-04-24T06:40:43;11.00;99.90
12460;DHT22;6295;49.452;8.466;2023-04-24T06:44:45;10.80;99.90
12460;DHT22;6295;49.452;8.466;2023-04-24T06:48:50;10.70;99.90
12460;DHT22;6295;49.452;8.466;2023-04-24T06:52:52;10.70;99.90
12460;DHT22;6295;49.452;8.466;2023-04-24T06:56:55;10.60;99.90
12460;DHT22;6295;49.452;8.466;2023-04-24T07:05:00;10.60;99.90
12460;DHT22;6295;49.452;8.466;2023-04-24T07:09:05;10.60;99.90
12460;DHT22;6295;49.452;8.466;2023-04-24T07:17:12;10.60;99.90
12460;DHT22;6295;49.452;8.466;2023-04-24T07:21:14;10.60;99.90
12460;DHT22;6295;49.452;8.466;2023-04-24T07:25:17;10.70;99.90
12460;DHT22;6295;49.452;8.466;2023-04-24T07:29:22;10.70;99.90
12460;DHT22;6295;49.452;8.466;2023-04-24T07:33:24;10.80;99.90
12460;DHT22;6295;49.452;8.466;2023-04-24T07:41:28;10.70;99.90
12460;DHT22;6295;49.452;8.466;2023-04-24T07:45:32;10.70;99.90
12460;DHT22;6295;49.452;8.466;2023-04-24T07:49:37;10.80;99.90
12460;DHT22;6295;49.452;8.466;2023-04-24T07:57:42;11.20;99.90
12460;DHT22;6295;49.452;8.466;2023-04-24T08:01:45;11.40;99.90
12460;DHT22;6295;49.452;8.466;2023-04-24T08:05:48;11.50;99.90
12460;DHT22;6295;49.452;8.466;2023-04-24T08:09:51;11.60;99.90
12460;DHT22;6295;49.452;8.466;2023-04-24T08:17:57;11.60;99.90
12460;DHT22;6295;49.452;8.466;2023-04-24T08:22:00;11.60;99.90
12460;DHT22;6295;49.452;8.466;2023-04-24T08:26:02;11.60;99.90
12460;DHT22;6295;49.452;8.466;2023-04-24T08:30:07;11.50;99.90
12460;DHT22;6295;49.452;8.466;2023-04-24T08:38:15;11.60;99.90
12460;DHT22;6295;49.452;8.466;2023-04-24T08:42:18;11.70;99.90
12460;DHT22;6295;49.452;8.466;2023-04-24T08:46:22;11.80;99.90
12460;DHT22;6295;49.452;8.466;2023-04-24T08:50:25;11.80;99.90
12460;DHT22;6295;49.452;8.466;2023-04-24T08:54:28;11.90;99.90
12460;DHT22;6295;49.452;8.466;2023-04-24T08:58:31;11.90;99.90
12460;DHT22;6295;49.452;8.466;2023-04-24T09:02:34;11.90;99.90
12460;DHT22;6295;49.452;8.466;2023-04-24T09:06:38;11.90;99.90
12460;DHT22;6295;49.452;8.466;2023-04-24T09:10:42;11.90;99.90
12460;DHT22;6295;49.452;8.466;2023-04-24T09:14:45;11.90;99.90
12460;DHT22;6295;49.452;8.466;2023-04-24T09:18:47;11.90;99.90
12460;DHT22;6295;49.452;8.466;2023-04-24T09:22:54;11.80;99.90
12460;DHT22;6295;49.452;8.466;2023-04-24T09:26:58;11.70;99.90
12460;DHT22;6295;49.452;8.466;2023-04-24T09:35:07;11.80;99.90
12460;DHT22;6295;49.452;8.466;2023-04-24T09:39:12;11.80;99.90
12460;DHT22;6295;49.452;8.466;2023-04-24T09:47:23;12.00;99.90
12460;DHT22;6295;49.452;8.466;2023-04-24T09:51:36;12.10;99.90
12460;DHT22;6295;49.452;8.466;2023-04-24T09:55:47;12.20;99.90
12460;DHT22;6295;49.452;8.466;2023-04-24T09:59:54;12.30;99.90
12460;DHT22;6295;49.452;8.466;2023-04-24T10:08:03;12.30;99.90
12460;DHT22;6295;49.452;8.466;2023-04-24T10:12:07;12.20;99.90
12460;DHT22;6295;49.452;8.466;2023-04-24T10:16:10;12.20;99.90
12460;DHT22;6295;49.452;8.466;2023-04-24T10:20:12;12.20;99.90
12460;DHT22;6295;49.452;8.466;2023-04-24T10:24:15;12.20;99.90
12460;DHT22;6295;49.452;8.466;2023-04-24T10:36:24;12.30;99.90
12460;DHT22;6295;49.452;8.466;2023-04-24T10:44:37;12.50;99.90
12460;DHT22;6295;49.452;8.466;2023-04-24T10:48:42;12.60;99.90
12460;DHT22;6295;49.452;8.466;2023-04-24T10:52:48;12.70;99.90
12460;DHT22;6295;49.452;8.466;2023-04-24T11:00:59;12.90;99.90
12460;DHT22;6295;49.452;8.466;2023-04-24T11:05:03;13.00;99.90
12460;DHT22;6295;49.452;8.466;2023-04-24T11:09:07;13.30;99.90
12460;DHT22;6295;49.452;8.466;2023-04-24T11:13:09;13.40;99.90
12460;DHT22;6295;49.452;8.466;2023-04-24T11:21:40;13.60;99.90
12460;DHT22;6295;49.452;8.466;2023-04-24T11:25:44;13.40;99.90
12460;DHT22;6295;49.452;8.466;2023-04-24T11:29:49;13.20;99.90
12460;DHT22;6295;49.452;8.466;2023-04-24T11:33:53;13.20;99.90
12460;DHT22;6295;49.452;8.466;2023-04-24T11:37:55;13.20;99.90
12460;DHT22;6295;49.452;8.466;2023-04-24T11:46:06;13.20;99.90
12460;DHT22;6295;49.452;8.466;2023-04-24T11:50:12;13.00;99.90
12460;DHT22;6295;49.452;8.466;2023-04-24T11:58:20;12.80;99.90
12460;DHT22;6295;49.452;8.466;2023-04-24T12:02:24;12.70;99.90
12460;DHT22;6295;49.452;8.466;2023-04-24T12:06:28;12.60;99.90
12460;DHT22;6295;49.452;8.466;2023-04-24T12:10:33;12.50;99.90
12460;DHT22;6295;49.452;8.466;2023-04-24T12:18:47;12.60;99.90
12460;DHT22;6295;49.452;8.466;2023-04-24T12:22:53;12.70;99.90
12460;DHT22;6295;49.452;8.466;2023-04-24T12:31:00;13.20;99.90
12460;DHT22;6295;49.452;8.466;2023-04-24T12:35:04;13.10;99.90
12460;DHT22;6295;49.452;8.466;2023-04-24T12:39:16;13.20;99.90
12460;DHT22;6295;49.452;8.466;2023-04-24T12:43:19;13.20;99.90
12460;DHT22;6295;49.452;8.466;2023-04-24T12:47:23;13.10;99.90
12460;DHT22;6295;49.452;8.466;2023-04-24T12:55:31;13.10;99.90
12460;DHT22;6295;49.452;8.466;2023-04-24T12:59:37;13.20;99.90
12460;DHT22;6295;49.452;8.466;2023-04-24T13:03:41;13.20;99.90
12460;DHT22;6295;49.452;8.466;2023-04-24T13:07:44;13.20;99.90
12460;DHT22;6295;49.452;8.466;2023-04-24T13:11:47;13.20;99.90
12460;DHT22;6295;49.452;8.466;2023-04-24T13:15:49;13.30;99.90
12460;DHT22;6295;49.452;8.466;2023-04-24T13:19:53;13.40;99.90
12460;DHT22;6295;49.452;8.466;2023-04-24T13:23:56;13.60;99.90
12460;DHT22;6295;49.452;8.466;2023-04-24T13:27:59;13.70;99.90
12460;DHT22;6295;49.452;8.466;2023-04-24T13:32:01;13.80;99.90
12460;DHT22;6295;49.452;8.466;2023-04-24T13:40:07;13.90;99.90
12460;DHT22;6295;49.452;8.466;2023-04-24T13:44:11;13.80;99.90
12460;DHT22;6295;49.452;8.466;2023-04-24T13:48:13;13.80;99.90
12460;DHT22;6295;49.452;8.466;2023-04-24T13:52:16;13.80;99.90
12460;DHT22;6295;49.452;8.466;2023-04-24T13:56:18;13.70;99.90
12460;DHT22;6295;49.452;8.466;2023-04-24T14:00:22;13.60;99.90
12460;DHT22;6295;49.452;8.466;2023-04-24T14:04:24;13.50;99.90
12460;DHT22;6295;49.452;8.466;2023-04-24T14:08:26;13.40;99.90
12460;DHT22;6295;49.452;8.466;2023-04-24T14:12:28;13.40;99.90
12460;DHT22;6295;49.452;8.466;2023-04-24T14:20:34;13.20;99.90
12460;DHT22;6295;49.452;8.466;2023-04-24T14:24:39;13.20;99.90
12460;DHT22;6295;49.452;8.466;2023-04-24T14:28:41;13.10;99.90
12460;DHT22;6295;49.452;8.466;2023-04-24T14:32:48;12.90;99.90
12460;DHT22;6295;49.452;8.466;2023-04-24T14:40:52;12.70;99.90
12460;DHT22;6295;49.452;8.466;2023-04-24T14:44:54;12.60;99.90
12460;DHT22;6295;49.452;8.466;2023-04-24T14:48:59;12.60;99.90
12460;DHT22;6295;49.452;8.466;2023-04-24T14:53:01;12.60;99.90
12460;DHT22;6295;49.452;8.466;2023-04-24T15:05:10;12.60;99.90
12460;DHT22;6295;49.452;8.466;2023-04-24T15:13:19;12.60;99.90
12460;DHT22;6295;49.452;8.466;2023-04-24T15:17:23;12.60;99.90
12460;DHT22;6295;49.452;8.466;2023-04-24T15:21:27;12.60;99.90
12460;DHT22;6295;49.452;8.466;2023-04-24T15:29:31;12.60;99.90
12460;DHT22;6295;49.452;8.466;2023-04-24T15:33:33;12.60;99.90
12460;DHT22;6295;49.452;8.466;2023-04-24T15:37:37;12.70;99.90
12460;DHT22;6295;49.452;8.466;2023-04-24T15:41:42;12.70;99.90
12460;DHT22;6295;49.452;8.466;2023-04-24T15:45:45;12.70;99.90
12460;DHT22;6295;49.452;8.466;2023-04-24T15:49:47;12.70;99.90
12460;DHT22;6295;49.452;8.466;2023-04-24T15:53:50;12.80;99.90
12460;DHT22;6295;49.452;8.466;2023-04-24T15:57:53;12.80;99.90
12460;DHT22;6295;49.452;8.466;2023-04-24T16:01:55;12.80;99.90
12460;DHT22;6295;49.452;8.466;2023-04-24T16:10:01;12.80;99.90
12460;DHT22;6295;49.452;8.466;2023-04-24T16:14:03;12.80;99.90
12460;DHT22;6295;49.452;8.466;2023-04-24T16:18:05;12.90;99.90
12460;DHT22;6295;49.452;8.466;2023-04-24T16:22:07;12.90;99.90
12460;DHT22;6295;49.452;8.466;2023-04-24T16:26:11;13.00;99.90
12460;DHT22;6295;49.452;8.466;2023-04-24T16:30:14;13.10;99.90
12460;DHT22;6295;49.452;8.466;2023-04-24T16:34:16;13.10;99.90
12460;DHT22;6295;49.452;8.466;2023-04-24T16:38:18;13.20;99.90
12460;DHT22;6295;49.452;8.466;2023-04-24T16:42:22;13.30;99.90
12460;DHT22;6295;49.452;8.466;2023-04-24T16:46:25;13.40;99.90
12460;DHT22;6295;49.452;8.466;2023-04-24T16:50:29;13.40;99.90
12460;DHT22;6295;49.452;8.466;2023-04-24T16:54:31;13.50;99.90
12460;DHT22;6295;49.452;8.466;2023-04-24T16:58:37;13.60;99.90
12460;DHT22;6295;49.452;8.466;2023-04-24T17:02:41;13.80;99.90
12460;DHT22;6295;49.452;8.466;2023-04-24T17:06:48;13.90;99.90
12460;DHT22;6295;49.452;8.466;2023-04-24T17:10:50;14.00;99.90
12460;DHT22;6295;49.452;8.466;2023-04-24T17:14:53;13.90;99.90
12460;DHT22;6295;49.452;8.466;2023-04-24T17:18:55;13.80;99.90
12460;DHT22;6295;49.452;8.466;2023-04-24T17:22:57;13.70;99.90
12460;DHT22;6295;49.452;8.466;2023-04-24T17:31:04;13.40;99.90
12460;DHT22;6295;49.452;8.466;2023-04-24T17:35:07;13.30;99.90
12460;DHT22;6295;49.452;8.466;2023-04-24T17:39:09;13.30;99.90
12460;DHT22;6295;49.452;8.466;2023-04-24T17:43:11;13.20;99.90
12460;DHT22;6295;49.452;8.466;2023-04-24T17:47:19;13.10;99.90
12460;DHT22;6295;49.452;8.466;2023-04-24T17:51:22;13.00;99.90
12460;DHT22;6295;49.452;8.466;2023-04-24T17:55:24;13.00;99.90
